sensor_id;sensor_type;location;lat;lon;timestamp;P1;durP1;ratioP1;P2;durP2;ratioP2
77868;SDS011;67231;59.144;37.934;2023-04-23T00:02:14;18.05;;;6.07;;
77868;SDS011;67231;59.144;37.934;2023-04-23T00:04:45;19.73;;;6.35;;
77868;SDS011;67231;59.144;37.934;2023-04-23T00:09:46;27.35;;;8.30;;
77868;SDS011;67231;59.144;37.934;2023-04-23T00:12:17;24.83;;;8.27;;
77868;SDS011;67231;59.144;37.934;2023-04-23T00:14:43;23.52;;;8.23;;
77868;SDS011;67231;59.144;37.934;2023-04-23T00:17:10;27.58;;;8.15;;
77868;SDS011;67231;59.144;37.934;2023-04-23T00:19:37;31.15;;;8.85;;
77868;SDS011;67231;59.144;37.934;2023-04-23T00:22:03;29.90;;;8.90;;
77868;SDS011;67231;59.144;37.934;2023-04-23T00:24:29;28.98;;;8.88;;
77868;SDS011;67231;59.144;37.934;2023-04-23T00:26:57;29.80;;;8.95;;
77868;SDS011;67231;59.144;37.934;2023-04-23T00:29:23;26.23;;;8.13;;
77868;SDS011;67231;59.144;37.934;2023-04-23T00:31:49;25.20;;;7.82;;
77868;SDS011;67231;59.144;37.934;2023-04-23T00:34:16;21.13;;;7.68;;
77868;SDS011;67231;59.144;37.934;2023-04-23T00:36:42;23.00;;;8.00;;
77868;SDS011;67231;59.144;37.934;2023-04-23T00:39:11;23.77;;;7.80;;
77868;SDS011;67231;59.144;37.934;2023-04-23T00:41:38;33.90;;;9.32;;
77868;SDS011;67231;59.144;37.934;2023-04-23T00:44:06;29.77;;;8.55;;
77868;SDS011;67231;59.144;37.934;2023-04-23T00:46:34;27.20;;;9.45;;
77868;SDS011;67231;59.144;37.934;2023-04-23T00:49:01;34.50;;;9.63;;
77868;SDS011;67231;59.144;37.934;2023-04-23T00:51:28;27.27;;;9.20;;
77868;SDS011;67231;59.144;37.934;2023-04-23T00:53:56;35.13;;;10.40;;
77868;SDS011;67231;59.144;37.934;2023-04-23T00:56:23;31.60;;;9.73;;
77868;SDS011;67231;59.144;37.934;2023-04-23T00:58:50;31.45;;;9.48;;
77868;SDS011;67231;59.144;37.934;2023-04-23T01:01:17;33.80;;;10.77;;
77868;SDS011;67231;59.144;37.934;2023-04-23T01:03:50;34.30;;;9.77;;
77868;SDS011;67231;59.144;37.934;2023-04-23T01:06:17;41.33;;;11.50;;
77868;SDS011;67231;59.144;37.934;2023-04-23T01:08:44;24.70;;;7.93;;
77868;SDS011;67231;59.144;37.934;2023-04-23T01:11:12;30.08;;;7.00;;
77868;SDS011;67231;59.144;37.934;2023-04-23T01:13:40;20.13;;;6.50;;
77868;SDS011;67231;59.144;37.934;2023-04-23T01:16:07;27.65;;;6.70;;
77868;SDS011;67231;59.144;37.934;2023-04-23T01:18:34;17.95;;;5.93;;
77868;SDS011;67231;59.144;37.934;2023-04-23T01:21:01;22.80;;;6.25;;
77868;SDS011;67231;59.144;37.934;2023-04-23T01:23:29;18.85;;;5.07;;
77868;SDS011;67231;59.144;37.934;2023-04-23T01:25:56;12.23;;;3.97;;
77868;SDS011;67231;59.144;37.934;2023-04-23T01:28:23;18.50;;;4.43;;
77868;SDS011;67231;59.144;37.934;2023-04-23T01:30:50;11.00;;;3.72;;
77868;SDS011;67231;59.144;37.934;2023-04-23T01:33:17;13.18;;;3.47;;
77868;SDS011;67231;59.144;37.934;2023-04-23T01:35:44;12.55;;;3.20;;
77868;SDS011;67231;59.144;37.934;2023-04-23T01:38:12;10.68;;;3.25;;
77868;SDS011;67231;59.144;37.934;2023-04-23T01:40:39;14.25;;;3.30;;
77868;SDS011;67231;59.144;37.934;2023-04-23T01:43:05;15.23;;;2.75;;
77868;SDS011;67231;59.144;37.934;2023-04-23T01:45:33;12.10;;;3.00;;
77868;SDS011;67231;59.144;37.934;2023-04-23T01:48:00;8.07;;;2.97;;
77868;SDS011;67231;59.144;37.934;2023-04-23T01:50:27;15.00;;;3.15;;
77868;SDS011;67231;59.144;37.934;2023-04-23T01:52:54;14.40;;;3.45;;
77868;SDS011;67231;59.144;37.934;2023-04-23T01:55:21;10.50;;;3.13;;
77868;SDS011;67231;59.144;37.934;2023-04-23T01:57:48;11.95;;;3.28;;
77868;SDS011;67231;59.144;37.934;2023-04-23T02:00:16;17.92;;;3.67;;
77868;SDS011;67231;59.144;37.934;2023-04-23T02:02:43;10.18;;;2.63;;
77868;SDS011;67231;59.144;37.934;2023-04-23T02:05:11;10.77;;;3.10;;
77868;SDS011;67231;59.144;37.934;2023-04-23T02:07:41;8.60;;;2.85;;
77868;SDS011;67231;59.144;37.934;2023-04-23T02:10:09;10.18;;;2.85;;
77868;SDS011;67231;59.144;37.934;2023-04-23T02:12:36;10.68;;;3.35;;
77868;SDS011;67231;59.144;37.934;2023-04-23T02:15:07;14.52;;;4.60;;
77868;SDS011;67231;59.144;37.934;2023-04-23T02:17:55;16.30;;;3.45;;
77868;SDS011;67231;59.144;37.934;2023-04-23T02:20:21;17.80;;;4.10;;
77868;SDS011;67231;59.144;37.934;2023-04-23T02:22:48;13.48;;;3.35;;
77868;SDS011;67231;59.144;37.934;2023-04-23T02:25:15;22.60;;;4.05;;
77868;SDS011;67231;59.144;37.934;2023-04-23T02:27:47;14.02;;;3.70;;
77868;SDS011;67231;59.144;37.934;2023-04-23T02:30:13;9.45;;;3.45;;
77868;SDS011;67231;59.144;37.934;2023-04-23T02:32:40;15.80;;;4.15;;
77868;SDS011;67231;59.144;37.934;2023-04-23T02:35:08;15.93;;;4.53;;
77868;SDS011;67231;59.144;37.934;2023-04-23T02:37:35;16.42;;;4.32;;
77868;SDS011;67231;59.144;37.934;2023-04-23T02:40:02;15.38;;;4.32;;
77868;SDS011;67231;59.144;37.934;2023-04-23T02:42:33;17.48;;;4.30;;
77868;SDS011;67231;59.144;37.934;2023-04-23T02:44:59;17.65;;;5.13;;
77868;SDS011;67231;59.144;37.934;2023-04-23T02:47:26;21.30;;;4.63;;
77868;SDS011;67231;59.144;37.934;2023-04-23T02:49:53;21.85;;;4.95;;
77868;SDS011;67231;59.144;37.934;2023-04-23T02:52:19;19.02;;;4.80;;
77868;SDS011;67231;59.144;37.934;2023-04-23T02:54:48;21.30;;;5.72;;
77868;SDS011;67231;59.144;37.934;2023-04-23T02:57:15;27.25;;;6.03;;
77868;SDS011;67231;59.144;37.934;2023-04-23T02:59:41;21.10;;;5.20;;
77868;SDS011;67231;59.144;37.934;2023-04-23T03:02:08;21.52;;;5.70;;
77868;SDS011;67231;59.144;37.934;2023-04-23T03:04:35;25.67;;;5.15;;
77868;SDS011;67231;59.144;37.934;2023-04-23T03:07:01;27.45;;;5.55;;
77868;SDS011;67231;59.144;37.934;2023-04-23T03:09:27;22.17;;;6.40;;
77868;SDS011;67231;59.144;37.934;2023-04-23T03:11:54;25.83;;;6.70;;
77868;SDS011;67231;59.144;37.934;2023-04-23T03:14:22;35.45;;;6.95;;
77868;SDS011;67231;59.144;37.934;2023-04-23T03:16:48;23.65;;;6.57;;
77868;SDS011;67231;59.144;37.934;2023-04-23T03:19:15;29.58;;;6.65;;
77868;SDS011;67231;59.144;37.934;2023-04-23T03:21:42;30.77;;;7.88;;
77868;SDS011;67231;59.144;37.934;2023-04-23T03:24:09;25.73;;;7.40;;
77868;SDS011;67231;59.144;37.934;2023-04-23T03:26:38;32.28;;;6.95;;
77868;SDS011;67231;59.144;37.934;2023-04-23T03:29:04;26.90;;;7.15;;
77868;SDS011;67231;59.144;37.934;2023-04-23T03:31:31;41.15;;;9.15;;
77868;SDS011;67231;59.144;37.934;2023-04-23T03:33:58;41.53;;;9.30;;
77868;SDS011;67231;59.144;37.934;2023-04-23T03:36:31;44.30;;;9.35;;
77868;SDS011;67231;59.144;37.934;2023-04-23T03:38:58;38.80;;;7.95;;
77868;SDS011;67231;59.144;37.934;2023-04-23T03:41:28;35.22;;;7.50;;
77868;SDS011;67231;59.144;37.934;2023-04-23T03:43:55;26.27;;;6.93;;
77868;SDS011;67231;59.144;37.934;2023-04-23T03:46:38;26.08;;;6.10;;
77868;SDS011;67231;59.144;37.934;2023-04-23T03:49:05;28.15;;;6.18;;
77868;SDS011;67231;59.144;37.934;2023-04-23T03:51:31;23.60;;;6.50;;
77868;SDS011;67231;59.144;37.934;2023-04-23T03:53:57;29.55;;;6.40;;
77868;SDS011;67231;59.144;37.934;2023-04-23T03:56:35;33.60;;;7.28;;
77868;SDS011;67231;59.144;37.934;2023-04-23T03:59:31;24.10;;;6.63;;
77868;SDS011;67231;59.144;37.934;2023-04-23T04:01:59;25.70;;;6.03;;
77868;SDS011;67231;59.144;37.934;2023-04-23T04:04:25;27.75;;;5.20;;
77868;SDS011;67231;59.144;37.934;2023-04-23T04:06:54;21.00;;;5.28;;
77868;SDS011;67231;59.144;37.934;2023-04-23T04:09:25;26.30;;;5.45;;
77868;SDS011;67231;59.144;37.934;2023-04-23T04:11:52;28.85;;;5.80;;
77868;SDS011;67231;59.144;37.934;2023-04-23T04:14:19;28.85;;;5.63;;
77868;SDS011;67231;59.144;37.934;2023-04-23T04:16:46;32.03;;;5.93;;
77868;SDS011;67231;59.144;37.934;2023-04-23T04:19:12;22.45;;;5.85;;
77868;SDS011;67231;59.144;37.934;2023-04-23T04:21:38;27.30;;;5.38;;
77868;SDS011;67231;59.144;37.934;2023-04-23T04:24:04;23.52;;;5.43;;
77868;SDS011;67231;59.144;37.934;2023-04-23T04:26:31;24.38;;;5.85;;
77868;SDS011;67231;59.144;37.934;2023-04-23T04:28:59;18.73;;;5.55;;
77868;SDS011;67231;59.144;37.934;2023-04-23T04:31:29;24.48;;;6.40;;
77868;SDS011;67231;59.144;37.934;2023-04-23T04:33:56;27.95;;;6.15;;
77868;SDS011;67231;59.144;37.934;2023-04-23T04:36:23;33.00;;;7.25;;
77868;SDS011;67231;59.144;37.934;2023-04-23T04:38:52;21.48;;;5.93;;
77868;SDS011;67231;59.144;37.934;2023-04-23T04:41:21;20.58;;;5.68;;
77868;SDS011;67231;59.144;37.934;2023-04-23T04:43:50;20.83;;;5.75;;
77868;SDS011;67231;59.144;37.934;2023-04-23T04:46:17;31.70;;;6.20;;
77868;SDS011;67231;59.144;37.934;2023-04-23T04:48:46;25.08;;;5.90;;
77868;SDS011;67231;59.144;37.934;2023-04-23T04:51:13;24.02;;;5.57;;
77868;SDS011;67231;59.144;37.934;2023-04-23T04:53:40;30.67;;;5.40;;
77868;SDS011;67231;59.144;37.934;2023-04-23T04:56:07;38.40;;;7.18;;
77868;SDS011;67231;59.144;37.934;2023-04-23T04:58:34;32.95;;;7.30;;
77868;SDS011;67231;59.144;37.934;2023-04-23T05:01:01;28.05;;;6.10;;
77868;SDS011;67231;59.144;37.934;2023-04-23T05:03:27;28.40;;;7.70;;
77868;SDS011;67231;59.144;37.934;2023-04-23T05:05:54;31.20;;;7.32;;
77868;SDS011;67231;59.144;37.934;2023-04-23T05:08:21;27.58;;;7.20;;
77868;SDS011;67231;59.144;37.934;2023-04-23T05:10:47;30.63;;;6.45;;
77868;SDS011;67231;59.144;37.934;2023-04-23T05:13:15;22.60;;;5.05;;
77868;SDS011;67231;59.144;37.934;2023-04-23T05:15:42;23.55;;;5.38;;
77868;SDS011;67231;59.144;37.934;2023-04-23T05:18:10;22.55;;;5.40;;
77868;SDS011;67231;59.144;37.934;2023-04-23T05:20:36;22.10;;;5.45;;
77868;SDS011;67231;59.144;37.934;2023-04-23T05:23:03;21.35;;;4.30;;
77868;SDS011;67231;59.144;37.934;2023-04-23T05:25:29;25.52;;;3.95;;
77868;SDS011;67231;59.144;37.934;2023-04-23T05:27:56;19.90;;;3.95;;
77868;SDS011;67231;59.144;37.934;2023-04-23T05:30:23;22.73;;;3.67;;
77868;SDS011;67231;59.144;37.934;2023-04-23T05:32:49;27.67;;;4.22;;
77868;SDS011;67231;59.144;37.934;2023-04-23T05:35:15;20.73;;;3.60;;
77868;SDS011;67231;59.144;37.934;2023-04-23T05:37:42;27.85;;;4.40;;
77868;SDS011;67231;59.144;37.934;2023-04-23T05:40:08;14.73;;;3.30;;
77868;SDS011;67231;59.144;37.934;2023-04-23T05:42:35;15.05;;;3.40;;
77868;SDS011;67231;59.144;37.934;2023-04-23T05:45:03;13.23;;;3.20;;
77868;SDS011;67231;59.144;37.934;2023-04-23T05:47:32;8.40;;;2.47;;
77868;SDS011;67231;59.144;37.934;2023-04-23T05:50:00;8.95;;;2.72;;
77868;SDS011;67231;59.144;37.934;2023-04-23T05:52:32;7.93;;;3.08;;
77868;SDS011;67231;59.144;37.934;2023-04-23T05:55:02;6.18;;;2.90;;
77868;SDS011;67231;59.144;37.934;2023-04-23T05:57:30;5.45;;;2.38;;
77868;SDS011;67231;59.144;37.934;2023-04-23T05:59:57;6.38;;;2.45;;
77868;SDS011;67231;59.144;37.934;2023-04-23T06:02:23;8.30;;;2.28;;
77868;SDS011;67231;59.144;37.934;2023-04-23T06:04:50;5.93;;;2.20;;
77868;SDS011;67231;59.144;37.934;2023-04-23T06:07:16;5.97;;;2.00;;
77868;SDS011;67231;59.144;37.934;2023-04-23T06:09:43;6.47;;;2.05;;
77868;SDS011;67231;59.144;37.934;2023-04-23T06:12:09;3.60;;;1.80;;
77868;SDS011;67231;59.144;37.934;2023-04-23T06:14:36;7.78;;;1.98;;
77868;SDS011;67231;59.144;37.934;2023-04-23T06:17:05;3.45;;;1.67;;
77868;SDS011;67231;59.144;37.934;2023-04-23T06:19:31;3.58;;;1.85;;
77868;SDS011;67231;59.144;37.934;2023-04-23T06:21:58;11.48;;;2.20;;
77868;SDS011;67231;59.144;37.934;2023-04-23T06:24:24;4.70;;;1.92;;
77868;SDS011;67231;59.144;37.934;2023-04-23T06:26:50;8.13;;;1.80;;
77868;SDS011;67231;59.144;37.934;2023-04-23T06:29:19;4.93;;;2.15;;
77868;SDS011;67231;59.144;37.934;2023-04-23T06:32:02;6.47;;;1.92;;
77868;SDS011;67231;59.144;37.934;2023-04-23T06:34:30;4.85;;;1.92;;
77868;SDS011;67231;59.144;37.934;2023-04-23T06:36:56;5.82;;;1.95;;
77868;SDS011;67231;59.144;37.934;2023-04-23T06:39:23;4.72;;;2.13;;
77868;SDS011;67231;59.144;37.934;2023-04-23T06:41:49;6.25;;;2.13;;
77868;SDS011;67231;59.144;37.934;2023-04-23T06:44:22;7.88;;;2.08;;
77868;SDS011;67231;59.144;37.934;2023-04-23T06:46:51;7.15;;;2.05;;
77868;SDS011;67231;59.144;37.934;2023-04-23T06:49:19;7.03;;;2.22;;
77868;SDS011;67231;59.144;37.934;2023-04-23T06:51:45;5.25;;;1.90;;
77868;SDS011;67231;59.144;37.934;2023-04-23T06:54:13;4.65;;;1.90;;
77868;SDS011;67231;59.144;37.934;2023-04-23T06:56:39;3.75;;;2.00;;
77868;SDS011;67231;59.144;37.934;2023-04-23T06:59:05;8.35;;;2.22;;
77868;SDS011;67231;59.144;37.934;2023-04-23T07:01:34;6.13;;;2.03;;
77868;SDS011;67231;59.144;37.934;2023-04-23T07:04:01;4.40;;;1.90;;
77868;SDS011;67231;59.144;37.934;2023-04-23T07:06:29;7.38;;;1.90;;
77868;SDS011;67231;59.144;37.934;2023-04-23T07:08:56;5.00;;;2.00;;
77868;SDS011;67231;59.144;37.934;2023-04-23T07:11:22;4.10;;;1.90;;
77868;SDS011;67231;59.144;37.934;2023-04-23T07:13:49;4.72;;;2.20;;
77868;SDS011;67231;59.144;37.934;2023-04-23T07:16:15;4.30;;;2.03;;
77868;SDS011;67231;59.144;37.934;2023-04-23T07:18:41;6.43;;;2.00;;
77868;SDS011;67231;59.144;37.934;2023-04-23T07:21:07;6.82;;;2.40;;
77868;SDS011;67231;59.144;37.934;2023-04-23T07:23:34;3.88;;;2.00;;
77868;SDS011;67231;59.144;37.934;2023-04-23T07:26:00;7.75;;;2.10;;
77868;SDS011;67231;59.144;37.934;2023-04-23T07:28:27;5.45;;;1.92;;
77868;SDS011;67231;59.144;37.934;2023-04-23T07:30:53;13.25;;;2.53;;
77868;SDS011;67231;59.144;37.934;2023-04-23T07:33:19;6.05;;;2.08;;
77868;SDS011;67231;59.144;37.934;2023-04-23T07:35:48;5.90;;;1.88;;
77868;SDS011;67231;59.144;37.934;2023-04-23T07:38:14;6.57;;;2.20;;
77868;SDS011;67231;59.144;37.934;2023-04-23T07:40:41;2.88;;;1.60;;
77868;SDS011;67231;59.144;37.934;2023-04-23T07:43:07;5.68;;;2.20;;
77868;SDS011;67231;59.144;37.934;2023-04-23T07:45:34;3.42;;;2.17;;
77868;SDS011;67231;59.144;37.934;2023-04-23T07:48:00;3.72;;;2.20;;
77868;SDS011;67231;59.144;37.934;2023-04-23T07:50:27;3.85;;;1.90;;
77868;SDS011;67231;59.144;37.934;2023-04-23T07:52:54;3.72;;;1.80;;
77868;SDS011;67231;59.144;37.934;2023-04-23T07:55:21;3.92;;;1.95;;
77868;SDS011;67231;59.144;37.934;2023-04-23T07:57:47;5.30;;;2.00;;
77868;SDS011;67231;59.144;37.934;2023-04-23T08:00:14;4.70;;;2.63;;
77868;SDS011;67231;59.144;37.934;2023-04-23T08:02:41;5.78;;;2.28;;
77868;SDS011;67231;59.144;37.934;2023-04-23T08:05:07;3.83;;;2.35;;
77868;SDS011;67231;59.144;37.934;2023-04-23T08:07:34;10.75;;;2.05;;
77868;SDS011;67231;59.144;37.934;2023-04-23T08:10:01;7.22;;;2.20;;
77868;SDS011;67231;59.144;37.934;2023-04-23T08:12:32;8.43;;;2.13;;
77868;SDS011;67231;59.144;37.934;2023-04-23T08:15:01;5.70;;;2.13;;
77868;SDS011;67231;59.144;37.934;2023-04-23T08:17:34;4.20;;;2.10;;
77868;SDS011;67231;59.144;37.934;2023-04-23T08:20:02;3.15;;;2.10;;
77868;SDS011;67231;59.144;37.934;2023-04-23T08:22:30;3.75;;;2.03;;
77868;SDS011;67231;59.144;37.934;2023-04-23T08:24:56;5.35;;;2.10;;
77868;SDS011;67231;59.144;37.934;2023-04-23T08:27:23;4.10;;;1.98;;
77868;SDS011;67231;59.144;37.934;2023-04-23T08:29:49;4.30;;;2.13;;
77868;SDS011;67231;59.144;37.934;2023-04-23T08:32:16;7.20;;;2.33;;
77868;SDS011;67231;59.144;37.934;2023-04-23T08:34:43;4.63;;;2.10;;
77868;SDS011;67231;59.144;37.934;2023-04-23T08:37:09;5.53;;;2.53;;
77868;SDS011;67231;59.144;37.934;2023-04-23T08:39:36;5.05;;;2.10;;
77868;SDS011;67231;59.144;37.934;2023-04-23T08:42:09;5.45;;;2.00;;
77868;SDS011;67231;59.144;37.934;2023-04-23T08:44:40;4.88;;;1.92;;
77868;SDS011;67231;59.144;37.934;2023-04-23T08:47:09;3.60;;;2.08;;
77868;SDS011;67231;59.144;37.934;2023-04-23T08:49:37;5.38;;;2.13;;
77868;SDS011;67231;59.144;37.934;2023-04-23T08:52:09;4.95;;;2.08;;
77868;SDS011;67231;59.144;37.934;2023-04-23T08:54:45;6.13;;;1.90;;
77868;SDS011;67231;59.144;37.934;2023-04-23T08:57:16;3.83;;;1.60;;
77868;SDS011;67231;59.144;37.934;2023-04-23T08:59:43;5.10;;;2.20;;
77868;SDS011;67231;59.144;37.934;2023-04-23T09:02:10;7.03;;;2.00;;
77868;SDS011;67231;59.144;37.934;2023-04-23T09:04:37;7.18;;;2.35;;
77868;SDS011;67231;59.144;37.934;2023-04-23T09:07:04;4.68;;;2.00;;
77868;SDS011;67231;59.144;37.934;2023-04-23T09:09:32;4.88;;;2.00;;
77868;SDS011;67231;59.144;37.934;2023-04-23T09:12:00;6.30;;;2.00;;
77868;SDS011;67231;59.144;37.934;2023-04-23T09:14:26;6.97;;;1.80;;
77868;SDS011;67231;59.144;37.934;2023-04-23T09:16:53;6.32;;;2.00;;
77868;SDS011;67231;59.144;37.934;2023-04-23T09:19:20;6.03;;;2.45;;
77868;SDS011;67231;59.144;37.934;2023-04-23T09:21:46;5.22;;;1.90;;
77868;SDS011;67231;59.144;37.934;2023-04-23T09:24:12;6.22;;;2.13;;
77868;SDS011;67231;59.144;37.934;2023-04-23T09:26:43;3.83;;;1.98;;
77868;SDS011;67231;59.144;37.934;2023-04-23T09:31:39;4.65;;;2.00;;
77868;SDS011;67231;59.144;37.934;2023-04-23T09:34:06;7.32;;;1.95;;
77868;SDS011;67231;59.144;37.934;2023-04-23T09:36:34;4.20;;;1.88;;
77868;SDS011;67231;59.144;37.934;2023-04-23T09:39:01;4.45;;;2.08;;
77868;SDS011;67231;59.144;37.934;2023-04-23T09:41:37;6.32;;;2.33;;
77868;SDS011;67231;59.144;37.934;2023-04-23T09:44:03;5.85;;;1.80;;
77868;SDS011;67231;59.144;37.934;2023-04-23T09:46:33;7.78;;;2.38;;
77868;SDS011;67231;59.144;37.934;2023-04-23T09:49:05;4.05;;;2.03;;
77868;SDS011;67231;59.144;37.934;2023-04-23T09:51:36;3.15;;;1.90;;
77868;SDS011;67231;59.144;37.934;2023-04-23T09:54:07;4.90;;;2.00;;
77868;SDS011;67231;59.144;37.934;2023-04-23T09:56:37;9.90;;;2.25;;
77868;SDS011;67231;59.144;37.934;2023-04-23T09:59:18;3.85;;;2.10;;
77868;SDS011;67231;59.144;37.934;2023-04-23T10:01:48;6.22;;;2.42;;
77868;SDS011;67231;59.144;37.934;2023-04-23T10:04:19;5.13;;;2.10;;
77868;SDS011;67231;59.144;37.934;2023-04-23T10:06:54;5.15;;;2.38;;
77868;SDS011;67231;59.144;37.934;2023-04-23T10:09:22;6.70;;;2.10;;
77868;SDS011;67231;59.144;37.934;2023-04-23T10:11:53;9.90;;;2.08;;
77868;SDS011;67231;59.144;37.934;2023-04-23T10:14:22;8.73;;;2.40;;
77868;SDS011;67231;59.144;37.934;2023-04-23T10:16:50;6.43;;;2.38;;
77868;SDS011;67231;59.144;37.934;2023-04-23T10:19:22;4.22;;;2.20;;
77868;SDS011;67231;59.144;37.934;2023-04-23T10:21:54;8.30;;;2.55;;
77868;SDS011;67231;59.144;37.934;2023-04-23T10:24:26;5.88;;;2.78;;
77868;SDS011;67231;59.144;37.934;2023-04-23T10:26:56;6.70;;;2.53;;
77868;SDS011;67231;59.144;37.934;2023-04-23T10:29:25;10.20;;;2.58;;
77868;SDS011;67231;59.144;37.934;2023-04-23T10:31:55;7.55;;;2.67;;
77868;SDS011;67231;59.144;37.934;2023-04-23T10:34:24;9.27;;;3.25;;
77868;SDS011;67231;59.144;37.934;2023-04-23T10:36:51;9.43;;;2.63;;
77868;SDS011;67231;59.144;37.934;2023-04-23T10:39:19;7.15;;;2.70;;
77868;SDS011;67231;59.144;37.934;2023-04-23T10:41:46;4.85;;;2.30;;
77868;SDS011;67231;59.144;37.934;2023-04-23T10:44:13;8.80;;;3.20;;
77868;SDS011;67231;59.144;37.934;2023-04-23T10:46:51;8.35;;;3.10;;
77868;SDS011;67231;59.144;37.934;2023-04-23T10:49:18;10.00;;;2.67;;
77868;SDS011;67231;59.144;37.934;2023-04-23T10:51:47;14.77;;;3.30;;
77868;SDS011;67231;59.144;37.934;2023-04-23T10:54:14;15.65;;;3.25;;
77868;SDS011;67231;59.144;37.934;2023-04-23T10:56:42;12.20;;;3.17;;
77868;SDS011;67231;59.144;37.934;2023-04-23T10:59:18;12.23;;;2.95;;
77868;SDS011;67231;59.144;37.934;2023-04-23T11:01:46;11.90;;;3.20;;
77868;SDS011;67231;59.144;37.934;2023-04-23T11:04:22;21.27;;;4.75;;
77868;SDS011;67231;59.144;37.934;2023-04-23T11:06:57;39.38;;;6.30;;
77868;SDS011;67231;59.144;37.934;2023-04-23T11:12:07;23.77;;;3.85;;
77868;SDS011;67231;59.144;37.934;2023-04-23T11:17:06;30.75;;;4.55;;
77868;SDS011;67231;59.144;37.934;2023-04-23T11:22:09;13.73;;;2.78;;
77868;SDS011;67231;59.144;37.934;2023-04-23T11:24:39;6.65;;;2.50;;
77868;SDS011;67231;59.144;37.934;2023-04-23T11:27:08;8.68;;;2.78;;
77868;SDS011;67231;59.144;37.934;2023-04-23T11:29:35;10.88;;;2.60;;
77868;SDS011;67231;59.144;37.934;2023-04-23T11:32:03;10.38;;;2.75;;
77868;SDS011;67231;59.144;37.934;2023-04-23T11:34:38;7.40;;;2.60;;
77868;SDS011;67231;59.144;37.934;2023-04-23T11:37:08;8.68;;;2.75;;
77868;SDS011;67231;59.144;37.934;2023-04-23T11:39:35;12.60;;;2.50;;
77868;SDS011;67231;59.144;37.934;2023-04-23T11:42:02;13.52;;;3.10;;
77868;SDS011;67231;59.144;37.934;2023-04-23T11:44:29;12.93;;;2.92;;
77868;SDS011;67231;59.144;37.934;2023-04-23T11:46:59;17.48;;;2.95;;
77868;SDS011;67231;59.144;37.934;2023-04-23T11:49:28;10.20;;;3.00;;
77868;SDS011;67231;59.144;37.934;2023-04-23T11:51:57;21.55;;;3.00;;
77868;SDS011;67231;59.144;37.934;2023-04-23T11:54:25;11.77;;;2.38;;
77868;SDS011;67231;59.144;37.934;2023-04-23T11:56:52;8.75;;;2.22;;
77868;SDS011;67231;59.144;37.934;2023-04-23T11:59:19;11.10;;;2.20;;
77868;SDS011;67231;59.144;37.934;2023-04-23T12:01:47;11.55;;;2.83;;
77868;SDS011;67231;59.144;37.934;2023-04-23T12:04:19;11.68;;;2.45;;
77868;SDS011;67231;59.144;37.934;2023-04-23T12:06:56;8.93;;;2.50;;
77868;SDS011;67231;59.144;37.934;2023-04-23T12:09:24;9.32;;;1.92;;
77868;SDS011;67231;59.144;37.934;2023-04-23T12:11:54;10.32;;;2.40;;
77868;SDS011;67231;59.144;37.934;2023-04-23T12:14:26;16.70;;;2.53;;
77868;SDS011;67231;59.144;37.934;2023-04-23T12:16:54;12.73;;;2.63;;
77868;SDS011;67231;59.144;37.934;2023-04-23T12:19:26;13.18;;;2.10;;
77868;SDS011;67231;59.144;37.934;2023-04-23T12:21:58;12.75;;;2.58;;
77868;SDS011;67231;59.144;37.934;2023-04-23T12:24:27;9.35;;;2.40;;
77868;SDS011;67231;59.144;37.934;2023-04-23T12:27:12;12.95;;;4.07;;
77868;SDS011;67231;59.144;37.934;2023-04-23T12:29:40;13.40;;;2.50;;
77868;SDS011;67231;59.144;37.934;2023-04-23T12:32:09;17.65;;;2.58;;
77868;SDS011;67231;59.144;37.934;2023-04-23T12:34:36;11.57;;;2.30;;
77868;SDS011;67231;59.144;37.934;2023-04-23T12:37:17;7.13;;;2.50;;
77868;SDS011;67231;59.144;37.934;2023-04-23T12:39:48;7.65;;;2.15;;
77868;SDS011;67231;59.144;37.934;2023-04-23T12:42:14;8.70;;;2.03;;
77868;SDS011;67231;59.144;37.934;2023-04-23T12:44:41;12.43;;;2.65;;
77868;SDS011;67231;59.144;37.934;2023-04-23T12:47:08;9.77;;;2.30;;
77868;SDS011;67231;59.144;37.934;2023-04-23T12:49:40;12.07;;;2.58;;
77868;SDS011;67231;59.144;37.934;2023-04-23T12:52:08;8.38;;;1.90;;
77868;SDS011;67231;59.144;37.934;2023-04-23T12:54:35;8.77;;;1.92;;
77868;SDS011;67231;59.144;37.934;2023-04-23T12:57:04;5.68;;;1.70;;
77868;SDS011;67231;59.144;37.934;2023-04-23T12:59:32;6.53;;;1.88;;
77868;SDS011;67231;59.144;37.934;2023-04-23T13:01:59;5.47;;;2.10;;
77868;SDS011;67231;59.144;37.934;2023-04-23T13:04:33;7.72;;;2.20;;
77868;SDS011;67231;59.144;37.934;2023-04-23T13:07:01;5.70;;;2.38;;
77868;SDS011;67231;59.144;37.934;2023-04-23T13:09:28;10.60;;;2.20;;
77868;SDS011;67231;59.144;37.934;2023-04-23T13:11:55;8.00;;;2.10;;
77868;SDS011;67231;59.144;37.934;2023-04-23T13:14:22;5.80;;;1.80;;
77868;SDS011;67231;59.144;37.934;2023-04-23T13:16:48;11.70;;;2.13;;
77868;SDS011;67231;59.144;37.934;2023-04-23T13:19:15;10.88;;;2.42;;
77868;SDS011;67231;59.144;37.934;2023-04-23T13:21:44;5.70;;;2.38;;
77868;SDS011;67231;59.144;37.934;2023-04-23T13:24:11;9.73;;;2.40;;
77868;SDS011;67231;59.144;37.934;2023-04-23T13:26:37;9.48;;;2.70;;
77868;SDS011;67231;59.144;37.934;2023-04-23T13:29:03;12.48;;;3.35;;
77868;SDS011;67231;59.144;37.934;2023-04-23T13:31:30;9.50;;;2.78;;
77868;SDS011;67231;59.144;37.934;2023-04-23T13:33:57;9.55;;;2.67;;
77868;SDS011;67231;59.144;37.934;2023-04-23T13:36:24;10.10;;;3.95;;
77868;SDS011;67231;59.144;37.934;2023-04-23T13:38:50;12.75;;;4.70;;
77868;SDS011;67231;59.144;37.934;2023-04-23T13:41:17;11.30;;;3.72;;
77868;SDS011;67231;59.144;37.934;2023-04-23T13:43:44;14.82;;;4.07;;
77868;SDS011;67231;59.144;37.934;2023-04-23T13:46:11;10.00;;;3.13;;
77868;SDS011;67231;59.144;37.934;2023-04-23T13:48:38;10.38;;;2.85;;
77868;SDS011;67231;59.144;37.934;2023-04-23T13:51:04;9.27;;;2.35;;
77868;SDS011;67231;59.144;37.934;2023-04-23T13:53:31;9.65;;;2.30;;
77868;SDS011;67231;59.144;37.934;2023-04-23T13:55:58;11.40;;;2.60;;
77868;SDS011;67231;59.144;37.934;2023-04-23T13:58:24;18.20;;;2.83;;
77868;SDS011;67231;59.144;37.934;2023-04-23T14:00:51;4.97;;;1.77;;
77868;SDS011;67231;59.144;37.934;2023-04-23T14:03:18;8.43;;;2.03;;
77868;SDS011;67231;59.144;37.934;2023-04-23T14:05:45;6.57;;;1.80;;
77868;SDS011;67231;59.144;37.934;2023-04-23T14:08:12;12.95;;;1.92;;
77868;SDS011;67231;59.144;37.934;2023-04-23T14:10:38;9.13;;;2.03;;
77868;SDS011;67231;59.144;37.934;2023-04-23T14:13:06;9.70;;;2.00;;
77868;SDS011;67231;59.144;37.934;2023-04-23T14:15:32;7.38;;;2.25;;
77868;SDS011;67231;59.144;37.934;2023-04-23T14:18:00;7.53;;;1.98;;
77868;SDS011;67231;59.144;37.934;2023-04-23T14:20:27;8.48;;;2.00;;
77868;SDS011;67231;59.144;37.934;2023-04-23T14:22:55;8.35;;;2.30;;
77868;SDS011;67231;59.144;37.934;2023-04-23T14:25:30;13.07;;;3.15;;
77868;SDS011;67231;59.144;37.934;2023-04-23T14:28:01;15.88;;;4.50;;
77868;SDS011;67231;59.144;37.934;2023-04-23T14:30:34;11.23;;;4.15;;
77868;SDS011;67231;59.144;37.934;2023-04-23T14:33:01;12.77;;;3.95;;
77868;SDS011;67231;59.144;37.934;2023-04-23T14:35:27;12.88;;;3.85;;
77868;SDS011;67231;59.144;37.934;2023-04-23T14:37:55;10.35;;;2.88;;
77868;SDS011;67231;59.144;37.934;2023-04-23T14:40:21;7.80;;;2.45;;
77868;SDS011;67231;59.144;37.934;2023-04-23T14:42:48;4.22;;;2.20;;
77868;SDS011;67231;59.144;37.934;2023-04-23T14:45:17;9.10;;;3.65;;
77868;SDS011;67231;59.144;37.934;2023-04-23T14:47:44;8.73;;;3.65;;